Time;durP1;ratioP1;P1;durP2;ratioP2;P2;SDS_P1;SDS_P2;PMS_P1;PMS_P2;Temp;Humidity;BMP_temperature;BMP_pressure;BME280_temperature;BME280_humidity;BME280_pressure;Samples;Min_cycle;Max_cycle;Signal;HPM_P1;HPM_P2
2023/01/05 15:51:46;;;;;;;4.97;1.92;;;;;;;9.39;64.66;98942.55;2314398;83;25827;-86
2023/01/05 15:55:53;;;;;;;2.77;1.47;;;;;;;9.54;65.25;98956.04;2256139;86;26172;-88
2023/01/05 15:59:55;;;;;;;;;;;;;;;;;;;;;
2023/01/05 16:03:46;;;;;;;2.62;1.50;;;;;;;10.11;65.52;98964.94;2220669;88;25866;-86
2023/01/05 16:07:33;;;;;;;3.08;1.25;;;;;;;10.45;65.63;98966.34;2229878;87;25890;-75
2023/01/05 16:11:45;;;;;;;3.17;1.70;;;;;;;10.76;65.48;98962.02;2201140;89;26285;-85
2023/01/05 16:19:05;;;;;;;8.73;1.85;;;;;;;11.26;64.87;98986.74;2076085;93;26188;-81
2023/01/05 16:23:01;;;;;;;3.22;1.70;;;;;;;11.42;64.54;98985.42;1978603;98;26258;-87
2023/01/05 16:26:52;;;;;;;5.92;1.57;;;;;;;11.59;64.39;98957.53;1981504;97;25821;-79
2023/01/05 16:30:47;;;;;;;4.47;1.55;;;;;;;11.75;63.99;98984.47;1909217;100;25724;-86
2023/01/05 16:34:31;;;;;;;2.10;1.05;;;;;;;11.87;63.52;98990.09;1893278;103;25487;-87
2023/01/05 16:38:28;;;;;;;;;;;;;;;;;;;;;
2023/01/05 16:46:37;;;;;;;;;;;;;;;;;;;;;
2023/01/05 16:50:48;;;;;;;0.90;0.60;;;;;;;12.24;61.98;99041.74;1898297;102;26531;-80
2023/01/05 16:54:51;;;;;;;2.25;1.05;;;;;;;12.32;61.72;99060.88;1854990;103;25843;-88
2023/01/05 16:58:48;;;;;;;1.77;1.10;;;;;;;12.40;61.48;99056.91;1765123;109;32514;-82
2023/01/05 17:02:57;;;;;;;1.25;0.85;;;;;;;12.43;61.25;99068.22;1824362;106;25920;-89
2023/01/05 17:06:52;;;;;;;3.10;0.88;;;;;;;12.46;60.91;99073.44;1821243;106;26506;-79
2023/01/05 17:10:44;;;;;;;;;;;;;;;;;;;;;
2023/01/05 17:14:08;;;;;;;2.83;0.95;;;;;;;12.44;60.19;99096.09;1827226;105;25856;-85
2023/01/05 17:17:41;;;;;;;2.08;0.80;;;;;;;12.47;60.05;99113.06;1835844;104;25946;-84
2023/01/05 17:21:34;;;;;;;1.12;0.78;;;;;;;12.47;59.79;99124.83;1922645;100;25942;-78
2023/01/05 17:25:03;;;;;;;1.80;0.90;;;;;;;12.48;59.59;99133.09;1891934;102;25969;-83
2023/01/05 17:28:34;;;;;;;1.55;1.12;;;;;;;12.47;59.48;99146.18;1875933;103;25941;-88
2023/01/05 17:32:30;;;;;;;1.05;0.82;;;;;;;12.45;59.32;99143.59;1876662;104;25867;-81
2023/01/05 17:43:26;;;;;;;1.22;1.02;;;;;;;12.46;58.88;99166.67;1872729;103;26361;-85
2023/01/05 17:47:07;;;;;;;1.15;0.70;;;;;;;12.46;58.81;99177.13;1870568;103;25850;-84
2023/01/05 17:50:55;;;;;;;1.32;0.37;;;;;;;12.44;58.65;99178.42;1818101;105;25992;-80
2023/01/05 17:58:29;;;;;;;2.33;1.07;;;;;;;12.39;58.40;99201.55;1853113;104;25819;-80
2023/01/05 18:02:04;;;;;;;0.67;0.53;;;;;;;12.40;58.26;99201.97;1844586;105;25934;-79
2023/01/05 18:14:01;;;;;;;5.67;0.90;;;;;;;12.31;57.80;99219.83;1757194;108;25923;-76
2023/01/05 18:17:42;;;;;;;0.62;0.62;;;;;;;12.29;57.59;99221.16;1770143;110;25619;-82
2023/01/05 18:21:34;;;;;;;;;;;;;;;;;;;;;
2023/01/05 18:28:41;;;;;;;0.78;0.50;;;;;;;12.17;57.18;99263.41;1717908;113;25876;-80
2023/01/05 18:32:24;;;;;;;1.05;0.72;;;;;;;12.15;57.08;99262.12;1747206;110;25910;-79
2023/01/05 18:36:03;;;;;;;0.90;0.70;;;;;;;12.13;56.97;99282.58;1740752;110;25886;-83
2023/01/05 18:39:43;;;;;;;1.00;0.62;;;;;;;12.12;56.88;99298.70;1768262;108;26130;-84
2023/01/05 18:43:20;;;;;;;1.77;0.68;;;;;;;12.12;56.79;99304.36;1777729;104;25977;-82
2023/01/05 18:47:03;;;;;;;1.32;0.68;;;;;;;12.08;56.70;99315.66;1755786;107;25880;-79
2023/01/05 18:50:58;;;;;;;1.00;0.70;;;;;;;12.07;56.65;99316.09;1804602;106;25917;-84
2023/01/05 18:54:29;;;;;;;0.93;0.72;;;;;;;12.03;56.61;99324.36;1829943;104;26043;-79
2023/01/05 18:58:13;;;;;;;1.25;0.75;;;;;;;11.95;56.88;99331.77;1910294;98;25948;-76
2023/01/05 19:01:51;;;;;;;0.90;0.70;;;;;;;11.82;57.68;99341.30;1936087;100;25897;-81
2023/01/05 19:05:30;;;;;;;2.02;0.80;;;;;;;11.69;58.09;99338.22;1956322;100;25778;-82
2023/01/05 19:09:19;;;;;;;;;;;;;;;;;;;;;
2023/01/05 19:12:50;;;;;;;2.85;0.90;;;;;;;11.48;58.57;99368.61;1935053;99;26118;-85
2023/01/05 19:16:39;;;;;;;1.20;1.07;;;;;;;11.42;58.87;99377.71;1944596;99;25801;-80
2023/01/05 19:23:48;;;;;;;1.35;0.80;;;;;;;11.26;59.12;99384.59;1898958;101;25765;-83
2023/01/05 19:27:45;;;;;;;1.17;0.80;;;;;;;11.25;59.47;99392.42;1984111;99;25921;-78
2023/01/05 19:31:12;;;;;;;1.05;0.80;;;;;;;11.23;59.67;99391.09;1990740;97;26211;-77
2023/01/05 19:35:01;;;;;;;3.17;0.98;;;;;;;11.27;59.87;99399.41;1995911;98;25987;-77
2023/01/05 19:38:44;;;;;;;4.47;1.00;;;;;;;11.28;59.90;99423.31;1995564;97;26586;-77
2023/01/05 19:42:53;;;;;;;3.65;0.98;;;;;;;11.26;59.98;99418.51;1966797;99;26008;-81
2023/01/05 19:50:35;;;;;;;1.30;0.95;;;;;;;12.00;61.82;99441.03;1906743;100;25885;-82
2023/01/05 19:59:23;;;;;;;;;;;;;;;;;;;;;
2023/01/05 20:29:24;;;;;;;1.37;0.93;;;;;;;12.17;58.40;99547.77;1801616;106;26499;-82
2023/01/05 20:37:04;;;;;;;1.85;1.05;;;;;;;12.12;57.69;99569.54;1798273;108;25997;-79
2023/01/05 20:40:29;;;;;;;1.22;0.90;;;;;;;12.10;57.45;99562.98;1782913;107;25971;-80
2023/01/05 20:44:04;;;;;;;1.47;0.78;;;;;;;12.08;57.18;99583.42;1817401;103;25940;-80
2023/01/05 20:51:19;;;;;;;1.80;0.90;;;;;;;12.03;56.63;99605.19;1831643;106;25937;-82
2023/01/05 20:54:48;;;;;;;1.02;0.85;;;;;;;11.91;56.42;99629.05;1891066;101;26226;-80
2023/01/05 20:58:12;;;;;;;1.10;0.85;;;;;;;11.76;56.21;99640.25;1981254;97;25848;-82
2023/01/05 21:01:54;;;;;;;3.27;1.05;;;;;;;11.64;56.09;99659.29;1966998;97;25896;-82
2023/01/05 21:09:24;;;;;;;0.70;0.70;;;;;;;11.43;55.88;99680.01;1791889;108;26331;-82
2023/01/05 21:13:20;;;;;;;1.17;0.80;;;;;;;11.35;55.77;99686.48;1784242;109;26496;-82
2023/01/05 21:20:52;;;;;;;0.90;0.70;;;;;;;11.51;56.31;99703.16;1766364;108;25873;-84
2023/01/05 21:24:25;;;;;;;;;;;;;;;11.47;56.01;99717.02;1782078;109;25934;-80
2023/01/05 21:28:28;;;;;;;1.02;0.80;;;;;;;11.36;55.62;99722.14;1763882;109;26058;-82
2023/01/05 21:32:06;;;;;;;1.00;0.70;;;;;;;11.24;55.54;99740.30;1834797;104;25421;-82
2023/01/05 21:35:41;;;;;;;2.05;0.70;;;;;;;11.13;55.38;99741.89;1836327;104;25884;-83
2023/01/05 21:39:38;;;;;;;1.07;0.78;;;;;;;11.07;55.24;99749.25;1849040;106;26131;-83
2023/01/05 21:43:25;;;;;;;;;;;;;;;;;;;;;
2023/01/05 21:47:16;;;;;;;1.00;0.60;;;;;;;10.87;54.99;99783.78;1850383;104;25863;-84
2023/01/05 22:03:50;;;;;;;0.90;0.70;;;;;;;10.77;54.49;99832.75;1931679;100;26077;-83
2023/01/05 22:07:25;;;;;;;0.95;0.80;;;;;;;10.70;54.13;99849.16;1845748;105;26019;-81
2023/01/05 22:11:25;;;;;;;0.80;0.70;;;;;;;10.58;53.73;99868.52;1849546;104;26101;-84
2023/01/05 22:14:56;;;;;;;;;;;;;;;10.58;53.73;99868.52;1831747;106;26616;-84
2023/01/05 22:18:38;;;;;;;0.88;0.70;;;;;;;10.57;53.72;99886.33;1832324;106;25898;-81
2023/01/05 22:22:15;;;;;;;1.67;0.70;;;;;;;10.54;53.60;99888.88;1857170;104;26431;-84
2023/01/05 22:34:15;;;;;;;0.98;0.90;;;;;;;10.41;53.30;99916.46;1821376;106;26000;-83
2023/01/05 22:38:04;;;;;;;1.07;0.90;;;;;;;10.35;53.21;99917.23;1837611;105;25988;-85
2023/01/05 22:41:42;;;;;;;1.60;0.98;;;;;;;10.32;53.17;99924.11;1845054;105;25955;-85
2023/01/05 22:45:35;;;;;;;0.95;0.80;;;;;;;10.29;53.12;99938.39;1893015;102;26255;-85
2023/01/05 22:49:21;;;;;;;1.60;1.00;;;;;;;10.25;53.08;99940.03;1896870;101;26306;-85
2023/01/05 22:53:24;;;;;;;0.95;0.88;;;;;;;10.20;52.83;99952.11;1849060;102;26389;-83
2023/01/05 22:57:15;;;;;;;1.07;0.98;;;;;;;10.20;52.83;99952.11;1859192;105;25785;-83
2023/01/05 23:01:22;;;;;;;1.20;1.00;;;;;;;10.38;55.00;99971.13;1871983;104;26343;-82
2023/01/05 23:05:12;;;;;;;;;;;;;;;;;;;;;
2023/01/05 23:08:42;;;;;;;3.72;1.17;;;;;;;10.64;55.83;99989.84;1817434;107;26009;-81
2023/01/05 23:12:35;;;;;;;;;;;;;;;;;;;;;
2023/01/05 23:16:24;;;;;;;;;;;;;;;;;;;;;
2023/01/05 23:24:28;;;;;;;3.52;0.88;;;;;;;11.04;55.15;100043.96;1917085;101;25911;-83
2023/01/05 23:28:16;;;;;;;;;;;;;;;;;;;;;
2023/01/05 23:32:07;;;;;;;5.17;2.00;;;;;;;11.13;54.83;100060.17;1844103;101;25774;-84
2023/01/05 23:35:52;;;;;;;2.25;0.88;;;;;;;11.02;54.69;100044.34;1683048;98;10000072;-84
2023/01/05 23:39:13;;;;;;;1.42;1.05;;;;;;;11.16;54.54;100066.31;1914017;101;26256;-88
2023/01/05 23:43:32;;;;;;;2.00;0.80;;;;;;;11.17;54.40;100075.92;1902741;102;25892;-83
2023/01/05 23:47:11;;;;;;;1.52;1.00;;;;;;;11.20;54.07;100103.77;1929245;100;26006;-84
2023/01/05 23:50:55;;;;;;;1.62;0.82;;;;;;;11.20;54.07;100103.77;1950426;97;25903;-87
2023/01/05 23:54:43;;;;;;;;;;;;;;;;;;;;;
2023/01/05 23:58:08;;;;;;;1.67;0.80;;;;;;;11.17;53.89;100119.37;1873128;102;25818;-83
